Time;durP1;ratioP1;P1;durP2;ratioP2;P2;SDS_P1;SDS_P2;PMS_P1;PMS_P2;Temp;Humidity;BMP_temperature;BMP_pressure;BME280_temperature;BME280_humidity;BME280_pressure;Samples;Min_cycle;Max_cycle;Signal;HPM_P1;HPM_P2
2023/07/18 00:00:17;;;;;;;8.17;5.67;;;;;;;12.06;100.00;96419.91;7402773;19;20812;-91
2023/07/18 00:02:45;;;;;;;5.97;5.30;;;;;;;12.42;100.00;96557.75;7401310;19;20361;-91
2023/07/18 00:05:13;;;;;;;7.40;4.53;;;;;;;13.19;100.00;96681.78;7396111;19;21023;-91
2023/07/18 00:07:41;;;;;;;7.47;4.80;;;;;;;13.24;100.00;96671.72;7395744;19;20944;-91
2023/07/18 00:10:09;;;;;;;4.63;3.87;;;;;;;12.77;100.00;96605.03;7395795;19;20416;-91
2023/07/18 00:12:37;;;;;;;6.83;6.03;;;;;;;12.96;100.00;96692.84;7398425;19;20379;-91
2023/07/18 00:15:09;;;;;;;6.33;4.83;;;;;;;12.31;100.00;96599.06;7396807;19;20403;-91
2023/07/18 00:17:38;;;;;;;5.70;5.20;;;;;;;13.33;100.00;96690.16;7400812;19;20382;-91
2023/07/18 00:20:12;;;;;;;9.57;5.40;;;;;;;12.73;100.00;96617.41;7395002;19;20402;-91
2023/07/18 00:22:43;;;;;;;8.10;5.93;;;;;;;13.13;100.00;96622.03;7400470;19;20390;-92
2023/07/18 00:25:13;;;;;;;7.40;5.17;;;;;;;12.36;100.00;96545.03;7396309;19;20377;-92
2023/07/18 00:27:40;;;;;;;4.97;4.47;;;;;;;13.64;100.00;96704.72;7401320;19;20384;-92
2023/07/18 00:30:09;;;;;;;5.67;5.10;;;;;;;13.76;100.00;96715.34;7397047;19;20692;-91
2023/07/18 00:36:55;;;;;;;6.17;4.70;;;;;;;13.71;100.00;96755.41;7402461;19;20350;-91
2023/07/18 00:39:23;;;;;;;7.07;4.90;;;;;;;13.75;100.00;96729.69;7393920;19;20964;-91
2023/07/18 00:41:52;;;;;;;5.53;4.70;;;;;;;14.06;100.00;96760.97;7395381;19;20936;-92
2023/07/18 00:44:20;;;;;;;6.20;4.93;;;;;;;13.75;100.00;96711.09;7397342;19;20399;-91
2023/07/18 00:46:48;;;;;;;8.43;5.83;;;;;;;13.06;100.00;96627.88;7395817;19;20396;-91
2023/07/18 00:49:15;;;;;;;10.63;7.10;;;;;;;13.61;100.00;96720.22;7393979;19;20923;-92
2023/07/18 00:51:43;;;;;;;7.83;6.77;;;;;;;13.13;100.00;96667.16;7395641;19;20381;-91
2023/07/18 00:54:10;;;;;;;7.30;5.87;;;;;;;13.10;100.00;96689.06;7395572;19;20365;-92
2023/07/18 00:56:37;;;;;;;5.90;5.33;;;;;;;12.75;100.00;96648.94;7395324;19;20373;-91
2023/07/18 00:59:06;;;;;;;7.20;5.80;;;;;;;12.67;100.00;96642.59;7393925;19;20415;-91
2023/07/18 01:01:34;;;;;;;6.23;5.63;;;;;;;12.73;100.00;96673.91;7395939;19;20793;-89
2023/07/18 01:04:02;;;;;;;7.60;5.93;;;;;;;13.09;100.00;96754.66;7399015;19;20834;-88
2023/07/18 01:06:29;;;;;;;6.70;5.93;;;;;;;13.17;100.00;96753.00;7400001;19;20408;-88
2023/07/18 01:08:56;;;;;;;7.37;6.10;;;;;;;13.04;100.00;96723.00;7400057;19;20439;-89
2023/07/18 01:11:23;;;;;;;10.53;7.63;;;;;;;12.22;100.00;96595.72;7412082;19;20421;-89
2023/07/18 01:13:50;;;;;;;7.80;6.20;;;;;;;12.68;100.00;96678.66;7411539;19;20388;-89
2023/07/18 01:16:16;;;;;;;7.73;6.40;;;;;;;12.98;100.00;96737.63;7412629;19;20932;-89
2023/07/18 01:18:44;;;;;;;6.77;5.87;;;;;;;12.81;100.00;96720.00;7412954;19;20486;-89
2023/07/18 01:21:18;;;;;;;7.87;6.17;;;;;;;13.13;100.00;96762.75;7414234;19;20434;-89
2023/07/18 01:23:45;;;;;;;6.93;6.23;;;;;;;13.00;100.00;96738.84;7409723;19;20379;-89
2023/07/18 01:26:13;;;;;;;6.87;5.83;;;;;;;13.13;100.00;96750.22;7410119;19;20375;-89
2023/07/18 01:28:41;;;;;;;8.00;6.30;;;;;;;12.91;100.00;96714.28;7414478;19;20398;-89
2023/07/18 01:31:08;;;;;;;7.57;5.80;;;;;;;12.86;100.00;96709.19;7417769;19;20413;-89
2023/07/18 01:33:35;;;;;;;9.07;6.03;;;;;;;12.14;100.00;96618.56;7420381;19;20373;-89
2023/07/18 01:36:02;;;;;;;7.00;6.00;;;;;;;12.81;100.00;96716.56;7417177;19;20367;-89
2023/07/18 01:38:29;;;;;;;5.77;5.10;;;;;;;13.27;100.00;96777.25;7402593;19;20977;-89
2023/07/18 01:40:57;;;;;;;7.50;5.20;;;;;;;12.68;100.00;96750.28;7404009;19;20435;-89
2023/07/18 01:43:24;;;;;;;7.10;5.13;;;;;;;12.50;100.00;96760.31;7406829;19;20416;-89
2023/07/18 01:45:51;;;;;;;9.87;7.00;;;;;;;12.91;100.00;96782.50;7404155;19;20788;-90
2023/07/18 01:48:20;;;;;;;6.77;5.60;;;;;;;12.76;100.00;96728.19;7405875;19;20410;-89
2023/07/18 01:50:46;;;;;;;6.70;5.63;;;;;;;12.84;100.00;96764.47;7405030;19;20378;-89
2023/07/18 01:53:14;;;;;;;5.60;5.10;;;;;;;12.80;100.00;96782.16;7405044;19;20505;-89
2023/07/18 01:55:41;;;;;;;6.20;5.30;;;;;;;12.34;100.00;96707.13;7403390;19;20773;-89
2023/07/18 01:58:08;;;;;;;5.47;4.87;;;;;;;12.66;100.00;96757.78;7401677;19;20385;-89
2023/07/18 02:00:35;;;;;;;6.60;5.87;;;;;;;12.48;100.00;96745.81;7403404;19;20472;-89
2023/07/18 02:03:02;;;;;;;5.73;5.23;;;;;;;12.56;100.00;96737.78;7406438;19;20375;-89
2023/07/18 02:05:32;;;;;;;5.13;4.70;;;;;;;12.80;100.00;96755.59;7403661;19;20970;-89
2023/07/18 02:08:00;;;;;;;5.20;4.77;;;;;;;12.73;100.00;96752.75;7402411;19;20382;-89
2023/07/18 02:10:27;;;;;;;7.90;6.63;;;;;;;12.82;100.00;96771.19;7399786;19;20446;-88
2023/07/18 02:12:57;;;;;;;8.03;5.90;;;;;;;12.88;100.00;96778.63;7407589;19;20388;-89
2023/07/18 02:15:24;;;;;;;7.23;4.60;;;;;;;12.51;100.00;96751.25;7404953;19;20366;-88
2023/07/18 02:17:51;;;;;;;6.10;5.33;;;;;;;12.43;100.00;96733.56;7406269;19;20364;-89
2023/07/18 02:20:18;;;;;;;5.10;4.60;;;;;;;12.38;100.00;96747.78;7401128;19;20428;-89
2023/07/18 02:22:47;;;;;;;5.83;4.70;;;;;;;11.79;100.00;96721.50;7403380;19;20420;-88
2023/07/18 02:25:17;;;;;;;6.40;5.73;;;;;;;12.13;100.00;96762.03;7402724;19;20874;-89
2023/07/18 02:27:45;;;;;;;5.67;5.07;;;;;;;12.58;100.00;96778.03;7402545;19;20753;-89
2023/07/18 02:30:13;;;;;;;8.67;4.70;;;;;;;12.28;100.00;96715.59;7401014;19;20933;-89
2023/07/18 02:32:43;;;;;;;5.70;5.10;;;;;;;12.49;100.00;96766.72;7407355;19;20368;-88
2023/07/18 02:35:17;;;;;;;7.07;4.93;;;;;;;12.42;100.00;96767.25;7403115;19;21015;-89
2023/07/18 02:37:46;;;;;;;8.00;5.37;;;;;;;11.72;100.00;96768.88;7402202;19;20714;-89
2023/07/18 02:40:17;;;;;;;5.73;5.00;;;;;;;11.00;100.00;96632.31;7402082;19;20970;-89
2023/07/18 02:42:45;;;;;;;5.00;4.50;;;;;;;10.63;100.00;96550.06;7403021;19;20448;-88
2023/07/18 02:45:12;;;;;;;5.57;4.57;;;;;;;10.53;100.00;96568.16;7403494;19;20422;-88
2023/07/18 02:47:39;;;;;;;7.30;4.83;;;;;;;10.49;100.00;96549.50;7403700;19;20382;-89
2023/07/18 02:50:07;;;;;;;6.30;5.43;;;;;;;11.73;100.00;96706.06;7404909;19;20435;-88
2023/07/18 02:52:35;;;;;;;10.30;8.10;;;;;;;11.84;100.00;96737.19;7405555;19;20927;-88
2023/07/18 02:55:03;;;;;;;11.83;9.17;;;;;;;10.67;100.00;96584.56;7405825;19;20370;-88
2023/07/18 02:57:31;;;;;;;14.93;10.20;;;;;;;10.42;100.00;96553.78;7404911;19;20397;-89
2023/07/18 02:59:59;;;;;;;11.20;8.17;;;;;;;11.88;100.00;96782.34;7404683;19;20427;-88
2023/07/18 03:02:28;;;;;;;33.90;8.40;;;;;;;11.78;100.00;96748.28;7403592;19;20736;-88
2023/07/18 03:04:56;;;;;;;6.90;5.97;;;;;;;11.45;100.00;96770.13;7405126;19;20411;-89
2023/07/18 03:07:23;;;;;;;6.23;4.77;;;;;;;11.23;100.00;96752.66;7403738;19;20384;-88
2023/07/18 03:09:50;;;;;;;7.90;4.57;;;;;;;11.54;100.00;96754.19;7404306;19;20412;-88
2023/07/18 03:12:17;;;;;;;6.83;5.00;;;;;;;10.95;100.00;96672.94;7401377;19;20367;-88
2023/07/18 03:14:44;;;;;;;10.20;4.97;;;;;;;11.13;100.00;96696.66;7406063;19;20394;-87
2023/07/18 03:17:11;;;;;;;5.93;4.70;;;;;;;10.31;100.00;96567.34;7406587;19;20403;-88
2023/07/18 03:19:38;;;;;;;16.27;5.30;;;;;;;10.80;100.00;96615.28;7404743;19;20434;-88
2023/07/18 03:22:05;;;;;;;5.40;4.30;;;;;;;10.15;100.00;96607.75;7404549;19;20396;-88
2023/07/18 03:24:34;;;;;;;4.87;4.17;;;;;;;10.49;100.00;96737.22;7404611;19;20401;-88
2023/07/18 03:27:03;;;;;;;6.37;4.30;;;;;;;10.32;100.00;96735.38;7401307;19;20414;-88
2023/07/18 03:29:30;;;;;;;12.10;5.30;;;;;;;9.64;100.00;96657.75;7399537;19;20414;-89
2023/07/18 03:32:02;;;;;;;17.73;5.37;;;;;;;10.60;100.00;96746.38;7402572;19;20911;-88
2023/07/18 03:34:29;;;;;;;13.87;7.30;;;;;;;8.86;100.00;96457.28;7401031;19;20431;-89
2023/07/18 03:36:56;;;;;;;17.13;5.30;;;;;;;11.34;100.00;96778.75;7401615;19;20392;-88
2023/07/18 03:39:23;;;;;;;11.63;4.80;;;;;;;11.58;100.00;96780.81;7399534;19;20396;-88
2023/07/18 03:41:50;;;;;;;13.80;5.53;;;;;;;11.63;100.00;96772.69;7403499;19;20394;-88
2023/07/18 03:44:17;;;;;;;9.87;4.90;;;;;;;10.86;100.00;96647.63;7400698;19;20390;-88
2023/07/18 03:46:44;;;;;;;13.93;5.40;;;;;;;10.81;100.00;96629.28;7400424;19;20772;-88
2023/07/18 03:49:11;;;;;;;10.90;6.07;;;;;;;11.40;100.00;96743.84;7401406;19;20419;-88
2023/07/18 03:51:39;;;;;;;14.57;4.97;;;;;;;10.03;100.00;96516.75;7403573;19;20405;-88
2023/07/18 03:54:06;;;;;;;11.03;5.53;;;;;;;11.61;100.00;96745.72;7401016;19;20791;-88
2023/07/18 03:56:33;;;;;;;14.10;5.47;;;;;;;11.28;100.00;96716.50;7403415;19;20468;-88
2023/07/18 03:59:00;;;;;;;24.20;6.30;;;;;;;9.84;100.00;96571.81;7398615;19;20771;-89
2023/07/18 04:01:27;;;;;;;10.73;5.93;;;;;;;11.05;100.00;96716.00;7402095;19;20393;-89
2023/07/18 04:03:54;;;;;;;15.30;7.60;;;;;;;10.64;100.00;96640.72;7400119;19;20450;-89
2023/07/18 04:06:21;;;;;;;14.30;6.17;;;;;;;11.62;100.00;96784.34;7403026;19;20402;-89
2023/07/18 04:08:48;;;;;;;11.00;5.13;;;;;;;11.18;100.00;96725.59;7398604;19;20397;-88
2023/07/18 04:11:16;;;;;;;14.50;5.40;;;;;;;11.38;100.00;96734.69;7402406;19;20401;-88
2023/07/18 04:13:44;;;;;;;17.83;6.60;;;;;;;11.65;100.00;96755.38;7403532;19;20378;-89
2023/07/18 04:16:12;;;;;;;20.67;6.10;;;;;;;11.48;100.00;96697.22;7405860;19;20379;-88
2023/07/18 04:18:39;;;;;;;27.27;6.50;;;;;;;11.58;100.00;96714.59;7399551;19;20439;-88
2023/07/18 04:21:06;;;;;;;13.03;5.77;;;;;;;12.23;100.00;96798.00;7402771;19;20390;-88
2023/07/18 04:23:33;;;;;;;9.47;6.00;;;;;;;11.78;100.00;96749.06;7401853;19;20708;-88
2023/07/18 04:26:02;;;;;;;15.13;5.80;;;;;;;11.79;100.00;96745.31;7404794;19;20394;-88
2023/07/18 04:28:34;;;;;;;15.47;6.17;;;;;;;10.91;100.00;96709.06;7402024;19;20925;-89
2023/07/18 04:31:02;;;;;;;22.33;7.30;;;;;;;9.40;100.00;96462.94;7409509;19;20391;-88
2023/07/18 04:33:34;;;;;;;23.13;6.20;;;;;;;11.86;100.00;96794.38;7405707;19;20392;-88
2023/07/18 04:36:04;;;;;;;18.27;5.43;;;;;;;12.21;100.00;96784.28;7402272;19;20409;-88
2023/07/18 04:38:31;;;;;;;13.43;6.60;;;;;;;11.44;100.00;96638.84;7403065;19;20403;-88
2023/07/18 04:40:58;;;;;;;13.20;5.10;;;;;;;12.49;100.00;96768.59;7405186;19;20409;-88
2023/07/18 04:43:25;;;;;;;10.87;5.30;;;;;;;12.81;100.00;96786.34;7408287;19;20434;-88
2023/07/18 04:45:52;;;;;;;7.70;4.90;;;;;;;11.48;100.00;96556.88;7404901;19;20366;-88
2023/07/18 04:48:19;;;;;;;7.07;4.90;;;;;;;13.00;100.00;96786.63;7407196;19;20412;-88
2023/07/18 04:50:52;;;;;;;8.03;5.00;;;;;;;12.89;100.00;96774.88;7404400;19;20805;-88
2023/07/18 04:53:19;;;;;;;5.97;4.97;;;;;;;12.54;100.00;96752.47;7399198;19;20382;-88
2023/07/18 04:55:50;;;;;;;6.03;3.87;;;;;;;13.01;100.00;96796.13;7402675;19;20375;-88
2023/07/18 04:58:18;;;;;;;6.80;4.53;;;;;;;13.11;100.00;96762.28;7400985;19;20939;-88
2023/07/18 05:00:45;;;;;;;7.00;5.50;;;;;;;13.37;100.00;96797.31;7402721;19;20379;-88
2023/07/18 05:03:12;;;;;;;5.47;4.33;;;;;;;13.14;100.00;96766.94;7401366;19;20890;-88
2023/07/18 05:05:39;;;;;;;7.10;4.50;;;;;;;13.27;100.00;96740.09;7399710;19;20505;-88
2023/07/18 05:08:07;;;;;;;5.73;4.13;;;;;;;13.55;100.00;96772.03;7398841;19;20736;-88
2023/07/18 05:10:34;;;;;;;11.40;5.33;;;;;;;13.51;100.00;96786.34;7399521;19;20382;-88
2023/07/18 05:13:01;;;;;;;5.50;4.63;;;;;;;12.66;100.00;96631.22;7399897;19;20754;-89
2023/07/18 05:15:28;;;;;;;9.63;4.40;;;;;;;12.79;100.00;96602.81;7400554;19;20387;-88
2023/07/18 05:17:55;;;;;;;5.67;4.23;;;;;;;13.93;100.00;96762.91;7399210;19;20359;-88
2023/07/18 05:20:22;;;;;;;13.13;6.63;;;;;;;14.12;100.00;96759.63;7396215;19;20464;-88
2023/07/18 05:22:49;;;;;;;5.53;4.93;;;;;;;14.11;100.00;96774.03;7394092;19;20394;-89
2023/07/18 05:25:17;;;;;;;4.53;4.13;;;;;;;13.89;100.00;96770.00;7397827;19;20721;-89
2023/07/18 05:27:44;;;;;;;8.27;4.50;;;;;;;13.99;100.00;96779.38;7397534;19;20412;-88
2023/07/18 05:30:14;;;;;;;4.47;4.07;;;;;;;14.38;100.00;96789.22;7396799;19;20423;-89
2023/07/18 05:32:42;;;;;;;8.27;5.20;;;;;;;13.96;100.00;96735.63;7398719;19;20393;-89
2023/07/18 05:35:11;;;;;;;6.57;4.77;;;;;;;13.92;100.00;96729.44;7397016;19;20404;-89
2023/07/18 05:37:38;;;;;;;7.37;4.93;;;;;;;14.27;100.00;96768.75;7396237;19;20441;-89
2023/07/18 05:40:09;;;;;;;8.43;5.67;;;;;;;14.22;100.00;96729.09;7392355;19;20425;-89
2023/07/18 05:42:37;;;;;;;5.60;4.60;;;;;;;14.40;100.00;96725.78;7396348;19;20381;-89
2023/07/18 05:45:07;;;;;;;4.73;4.30;;;;;;;14.73;100.00;96754.03;7398226;19;20391;-89
2023/07/18 05:47:37;;;;;;;5.63;4.77;;;;;;;14.68;100.00;96706.38;7396925;19;20467;-89
2023/07/18 05:50:06;;;;;;;8.20;4.83;;;;;;;14.94;100.00;96753.78;7397744;19;20424;-88
2023/07/18 05:52:34;;;;;;;4.83;3.90;;;;;;;15.15;100.00;96788.94;7395084;19;20372;-89
2023/07/18 05:55:02;;;;;;;5.60;4.87;;;;;;;15.39;100.00;96780.00;7400098;19;20737;-90
2023/07/18 05:57:28;;;;;;;4.13;3.73;;;;;;;15.15;100.00;96738.31;7399254;19;20871;-91
2023/07/18 05:59:56;;;;;;;6.10;3.83;;;;;;;15.41;100.00;96731.69;7402934;19;20389;-91
2023/07/18 06:02:23;;;;;;;8.40;3.50;;;;;;;14.93;100.00;96624.44;7402858;19;20805;-91
2023/07/18 06:04:50;;;;;;;4.80;3.50;;;;;;;15.66;100.00;96722.34;7404842;19;20390;-91
2023/07/18 06:07:17;;;;;;;6.40;3.30;;;;;;;16.16;100.00;96753.47;7404339;19;20397;-91
2023/07/18 06:09:44;;;;;;;6.07;3.40;;;;;;;16.37;100.00;96768.34;7403057;19;20426;-91
2023/07/18 06:12:12;;;;;;;3.23;2.87;;;;;;;16.57;100.00;96779.78;7403064;19;20397;-91
2023/07/18 06:14:39;;;;;;;5.63;3.07;;;;;;;16.46;100.00;96743.00;7404912;19;20390;-90
2023/07/18 06:17:06;;;;;;;3.90;3.30;;;;;;;16.87;100.00;96756.69;7402248;19;20404;-91
2023/07/18 06:19:35;;;;;;;4.37;2.90;;;;;;;17.40;100.00;96773.59;7399760;19;20447;-92
2023/07/18 06:22:03;;;;;;;5.90;3.00;;;;;;;17.60;100.00;96747.50;7404668;19;20381;-91
2023/07/18 06:24:30;;;;;;;3.93;3.13;;;;;;;17.08;100.00;96655.50;7400342;19;20377;-92
2023/07/18 06:26:57;;;;;;;3.17;2.80;;;;;;;16.43;100.00;96577.44;7400783;19;20382;-92
2023/07/18 06:29:24;;;;;;;4.07;2.97;;;;;;;17.10;100.00;96580.34;7396378;19;20420;-92
2023/07/18 06:31:52;;;;;;;4.20;3.80;;;;;;;18.28;100.00;96727.72;7400741;19;20401;-92
2023/07/18 06:34:19;;;;;;;6.07;3.60;;;;;;;17.72;100.00;96576.13;7400010;19;20402;-91
2023/07/18 06:36:46;;;;;;;3.80;2.70;;;;;;;19.01;100.00;96754.09;7400845;19;20960;-92
2023/07/18 06:39:16;;;;;;;3.73;3.07;;;;;;;17.58;100.00;96591.22;7398610;19;20814;-92
2023/07/18 06:41:47;;;;;;;6.27;4.17;;;;;;;18.52;97.93;96667.53;7400166;19;20795;-91
2023/07/18 06:44:19;;;;;;;5.90;3.23;;;;;;;18.45;96.03;96631.91;7399025;19;20373;-91
2023/07/18 06:46:46;;;;;;;4.57;2.80;;;;;;;17.99;92.24;96509.91;7403284;19;20387;-91
2023/07/18 06:49:15;;;;;;;4.83;3.30;;;;;;;18.11;92.37;96519.56;7399669;19;20423;-91
2023/07/18 06:51:42;;;;;;;6.90;3.00;;;;;;;18.15;89.67;96535.63;7402888;19;20404;-91
2023/07/18 06:54:10;;;;;;;3.30;2.67;;;;;;;19.14;84.30;96637.41;7400652;19;20910;-91
2023/07/18 06:56:39;;;;;;;4.03;3.17;;;;;;;18.18;88.50;96573.16;7403258;19;20395;-91
2023/07/18 06:59:06;;;;;;;3.73;2.43;;;;;;;19.53;82.70;96730.75;7397237;19;20415;-92
2023/07/18 07:01:34;;;;;;;3.00;2.30;;;;;;;18.60;80.49;96548.63;7399150;19;20474;-92
2023/07/18 07:04:02;;;;;;;4.60;2.27;;;;;;;19.42;78.59;96610.75;7397373;19;20395;-91
2023/07/18 07:06:30;;;;;;;4.80;2.70;;;;;;;18.47;75.54;96493.81;7411602;19;20917;-92
2023/07/18 07:08:57;;;;;;;4.80;2.80;;;;;;;19.78;76.58;96649.25;7427054;19;20427;-92
2023/07/18 07:11:27;;;;;;;5.47;2.70;;;;;;;19.01;75.23;96537.00;7417629;19;20415;-91
2023/07/18 07:13:54;;;;;;;3.20;2.60;;;;;;;19.48;73.84;96592.38;7400743;19;20400;-91
2023/07/18 07:16:22;;;;;;;3.73;2.57;;;;;;;20.50;75.90;96674.38;7398360;19;20384;-91
2023/07/18 07:18:50;;;;;;;3.30;2.50;;;;;;;20.42;72.53;96713.13;7398551;19;20423;-92
2023/07/18 07:21:17;;;;;;;2.80;2.60;;;;;;;19.94;70.84;96638.19;7403737;19;20769;-90
2023/07/18 07:23:45;;;;;;;3.27;2.80;;;;;;;20.37;71.56;96632.88;7397952;19;20379;-90
2023/07/18 07:26:12;;;;;;;4.87;3.07;;;;;;;20.31;72.26;96632.50;7397797;19;20402;-90
2023/07/18 07:28:40;;;;;;;4.23;2.83;;;;;;;20.47;71.91;96604.53;7399869;19;20423;-90
2023/07/18 07:31:07;;;;;;;2.97;2.70;;;;;;;20.55;69.88;96598.75;7415041;19;20419;-90
2023/07/18 07:33:34;;;;;;;6.90;2.80;;;;;;;20.02;70.21;96537.72;7401297;19;20891;-90
2023/07/18 07:36:03;;;;;;;4.77;3.10;;;;;;;21.43;70.03;96712.78;7398297;19;20393;-90
2023/07/18 07:38:30;;;;;;;4.67;3.13;;;;;;;20.89;69.71;96615.25;7397309;19;20408;-91
2023/07/18 07:40:57;;;;;;;3.93;2.50;;;;;;;21.18;70.30;96645.56;7397859;19;20802;-90
2023/07/18 07:43:25;;;;;;;4.13;2.60;;;;;;;21.18;69.50;96578.31;7397368;19;20699;-91
2023/07/18 07:45:52;;;;;;;4.27;2.77;;;;;;;20.85;68.59;96613.72;7397311;19;20363;-91
2023/07/18 07:48:21;;;;;;;4.10;2.83;;;;;;;21.04;68.67;96582.97;7396473;19;20791;-91
2023/07/18 07:50:50;;;;;;;3.23;2.93;;;;;;;21.05;67.93;96520.72;7397830;19;20386;-91
2023/07/18 07:53:18;;;;;;;4.90;3.23;;;;;;;22.22;67.38;96645.97;7398820;19;20385;-91
2023/07/18 07:55:45;;;;;;;3.10;2.80;;;;;;;21.05;64.53;96518.03;7399725;19;20397;-91
2023/07/18 07:58:12;;;;;;;4.27;2.63;;;;;;;22.18;64.34;96660.63;7400268;19;20384;-91
2023/07/18 08:00:40;;;;;;;5.93;4.10;;;;;;;21.00;64.51;96458.53;7420864;19;20372;-91
2023/07/18 08:03:08;;;;;;;5.33;2.90;;;;;;;21.94;64.62;96600.31;7420549;19;20384;-91
2023/07/18 08:05:36;;;;;;;3.40;3.00;;;;;;;21.08;63.45;96571.03;7411827;19;20388;-91
2023/07/18 08:08:03;;;;;;;5.17;3.07;;;;;;;20.97;64.00;96505.78;7397316;19;20391;-90
2023/07/18 08:10:30;;;;;;;3.73;2.90;;;;;;;21.95;66.12;96601.84;7396852;19;20388;-91
2023/07/18 08:12:58;;;;;;;4.30;2.90;;;;;;;21.47;63.40;96462.53;7397403;19;20704;-91
2023/07/18 08:15:26;;;;;;;3.80;2.90;;;;;;;21.69;61.49;96474.72;7398856;19;20405;-91
2023/07/18 08:17:57;;;;;;;3.63;3.33;;;;;;;21.20;62.20;96460.34;7396979;19;20393;-91
2023/07/18 08:20:24;;;;;;;3.30;2.80;;;;;;;21.15;62.34;96404.28;7392029;19;20414;-91
2023/07/18 08:22:51;;;;;;;4.33;3.43;;;;;;;21.65;63.38;96486.66;7396363;19;20713;-91
2023/07/18 08:25:19;;;;;;;5.27;3.00;;;;;;;22.16;63.68;96493.22;7396191;19;20375;-91
2023/07/18 08:27:46;;;;;;;4.73;2.80;;;;;;;22.34;60.94;96555.81;7396850;19;20383;-91
2023/07/18 08:30:13;;;;;;;4.00;3.33;;;;;;;22.63;62.42;96570.59;7394135;19;20409;-92
2023/07/18 08:32:40;;;;;;;5.97;3.10;;;;;;;22.92;61.78;96670.13;7396024;19;20382;-92
2023/07/18 08:35:08;;;;;;;4.00;3.60;;;;;;;21.79;60.62;96446.94;7396124;19;20393;-91
2023/07/18 08:37:35;;;;;;;4.70;3.50;;;;;;;22.65;61.17;96580.97;7395947;19;20398;-92
2023/07/18 08:40:05;;;;;;;4.60;3.50;;;;;;;22.87;59.61;96560.78;7394549;19;20411;-91
2023/07/18 08:42:33;;;;;;;3.20;2.90;;;;;;;22.52;60.09;96377.78;7397193;19;20403;-91
2023/07/18 08:45:03;;;;;;;4.90;3.50;;;;;;;22.71;57.80;96402.22;7398052;19;20457;-91
2023/07/18 08:47:31;;;;;;;5.43;3.43;;;;;;;22.53;57.97;96425.91;7396155;19;20890;-91
2023/07/18 08:49:58;;;;;;;3.33;3.00;;;;;;;23.45;57.99;96533.91;7393009;19;20414;-92
2023/07/18 08:52:26;;;;;;;3.37;2.93;;;;;;;22.80;57.83;96516.88;7406666;19;20377;-92
2023/07/18 08:54:53;;;;;;;3.60;3.30;;;;;;;22.93;58.19;96558.38;7425218;19;20373;-92
2023/07/18 08:57:20;;;;;;;3.83;2.50;;;;;;;22.67;58.87;96559.78;7401604;19;20443;-92
2023/07/18 08:59:48;;;;;;;5.00;3.40;;;;;;;22.52;60.28;96540.25;7393839;19;20733;-92
2023/07/18 09:02:15;;;;;;;4.70;3.13;;;;;;;22.34;60.32;96575.44;7395652;19;20423;-92
2023/07/18 09:04:46;;;;;;;5.40;3.60;;;;;;;20.86;59.87;96381.41;7392695;19;20354;-93
2023/07/18 09:07:14;;;;;;;5.37;3.00;;;;;;;22.36;59.31;96484.19;7419537;19;20379;-93
2023/07/18 09:09:48;;;;;;;5.20;2.97;;;;;;;23.48;57.67;96576.28;7422913;19;20445;-93
2023/07/18 09:12:15;;;;;;;3.73;3.10;;;;;;;23.28;58.01;96538.34;7425576;19;20390;-92
2023/07/18 09:14:42;;;;;;;3.50;2.80;;;;;;;22.33;57.06;96398.03;7395418;19;20378;-92
2023/07/18 09:17:09;;;;;;;3.03;2.63;;;;;;;24.21;57.49;96578.41;7394645;19;20456;-92
2023/07/18 09:19:37;;;;;;;30.53;15.40;;;;;;;24.96;56.12;96686.19;7394304;19;20429;-90
2023/07/18 09:22:06;;;;;;;4.57;3.00;;;;;;;23.49;56.29;96502.22;7394975;19;20388;-90
2023/07/18 09:24:35;;;;;;;4.93;2.60;;;;;;;23.93;56.36;96549.88;7395006;19;20368;-90
2023/07/18 09:27:05;;;;;;;5.03;3.47;;;;;;;23.67;55.54;96475.00;7396185;19;20426;-90
2023/07/18 09:29:32;;;;;;;3.30;3.00;;;;;;;23.84;55.46;96460.47;7394352;19;20426;-91
2023/07/18 09:31:59;;;;;;;2.80;2.60;;;;;;;23.32;54.60;96460.81;7402301;19;20388;-92
2023/07/18 09:34:27;;;;;;;6.53;2.67;;;;;;;21.73;56.13;96348.16;7416506;19;20391;-91
2023/07/18 09:36:57;;;;;;;4.90;3.27;;;;;;;23.78;55.74;96526.94;7404354;19;20465;-91
2023/07/18 09:39:25;;;;;;;4.00;3.10;;;;;;;22.87;55.55;96379.31;7406219;19;20802;-90
2023/07/18 09:41:54;;;;;;;5.40;2.87;;;;;;;23.92;55.28;96580.75;7408773;19;20401;-91
2023/07/18 09:44:24;;;;;;;7.00;3.13;;;;;;;23.04;56.72;96359.44;7403642;19;20389;-91
2023/07/18 09:47:00;;;;;;;5.67;3.60;;;;;;;24.05;54.98;96456.69;7404655;19;20952;-91
2023/07/18 09:49:29;;;;;;;4.70;3.00;;;;;;;24.07;54.53;96538.84;7404332;19;21024;-91
2023/07/18 09:52:03;;;;;;;3.90;2.53;;;;;;;23.43;54.51;96455.28;7407262;19;20391;-91
2023/07/18 09:54:31;;;;;;;3.40;3.10;;;;;;;23.02;57.18;96417.66;7401025;19;20469;-91
2023/07/18 09:57:04;;;;;;;9.07;3.07;;;;;;;23.34;55.33;96436.88;7400574;19;20375;-91
2023/07/18 09:59:37;;;;;;;7.83;3.40;;;;;;;22.77;54.96;96329.72;7398709;19;20924;-91
2023/07/18 10:02:09;;;;;;;6.43;3.40;;;;;;;23.75;54.56;96452.88;7402431;19;20455;-91
2023/07/18 10:04:38;;;;;;;7.67;3.70;;;;;;;22.48;55.12;96307.78;7400513;19;20869;-91
2023/07/18 10:07:10;;;;;;;5.73;3.30;;;;;;;23.30;54.98;96334.38;7400451;19;20382;-91
2023/07/18 10:09:38;;;;;;;8.00;3.40;;;;;;;25.08;54.39;96622.59;7399151;19;20418;-92
2023/07/18 10:12:07;;;;;;;6.67;3.53;;;;;;;23.43;55.98;96471.47;7400551;19;20893;-91
2023/07/18 10:14:56;;;;;;;4.53;2.77;;;;;;;24.63;55.09;96606.72;7399377;19;20932;-91
2023/07/18 10:17:40;;;;;;;10.53;4.53;;;;;;;23.75;55.43;96508.81;7402102;19;20384;-91
2023/07/18 10:20:30;;;;;;;4.90;3.60;;;;;;;22.93;58.26;96448.56;7397607;19;20438;-91
2023/07/18 10:22:59;;;;;;;5.73;3.20;;;;;;;22.98;57.13;96450.09;7399220;19;20442;-91
2023/07/18 10:25:31;;;;;;;7.20;3.23;;;;;;;23.23;55.96;96431.63;7399834;19;20417;-91
2023/07/18 10:28:00;;;;;;;4.73;2.70;;;;;;;22.45;55.81;96332.84;7400174;19;20406;-91
2023/07/18 10:30:42;;;;;;;5.63;3.43;;;;;;;23.88;56.60;96548.38;7397357;19;20426;-91
2023/07/18 10:33:09;;;;;;;4.90;2.90;;;;;;;22.41;56.25;96307.84;7401739;19;20381;-92
2023/07/18 10:35:44;;;;;;;5.33;3.37;;;;;;;24.67;55.94;96545.22;7400498;19;20377;-93
2023/07/18 10:38:13;;;;;;;6.27;3.30;;;;;;;24.23;55.05;96437.47;7400122;19;20396;-92
2023/07/18 10:40:43;;;;;;;6.97;2.50;;;;;;;24.07;54.73;96392.94;7400117;19;20382;-92
2023/07/18 10:43:18;;;;;;;4.70;3.30;;;;;;;23.09;55.19;96358.22;7397567;19;20455;-92
2023/07/18 10:45:45;;;;;;;3.50;2.87;;;;;;;23.55;56.11;96423.09;7399140;19;20535;-91
2023/07/18 10:48:16;;;;;;;2.83;2.50;;;;;;;25.34;54.13;96559.47;7398923;19;20438;-92
2023/07/18 10:50:45;;;;;;;4.23;2.90;;;;;;;24.58;53.17;96315.16;7396621;19;20467;-92
2023/07/18 10:53:13;;;;;;;2.90;2.60;;;;;;;25.42;53.12;96513.31;7399625;19;20387;-92
2023/07/18 10:55:41;;;;;;;8.00;3.40;;;;;;;24.23;53.39;96437.47;7400677;19;20400;-92
2023/07/18 10:58:20;;;;;;;4.87;3.60;;;;;;;24.30;54.37;96440.81;7398730;19;20387;-92
2023/07/18 11:00:49;;;;;;;2.97;2.67;;;;;;;24.53;53.45;96369.72;7399993;19;20388;-92
2023/07/18 11:03:31;;;;;;;5.60;3.03;;;;;;;25.12;52.48;96466.34;7398423;19;20390;-92
2023/07/18 11:05:58;;;;;;;4.43;4.03;;;;;;;23.99;52.21;96283.47;7398362;19;20411;-92
2023/07/18 11:08:26;;;;;;;5.43;2.97;;;;;;;25.27;52.33;96434.31;7397222;19;20927;-92
2023/07/18 11:10:57;;;;;;;5.30;3.13;;;;;;;25.05;52.10;96396.88;7397013;19;20467;-92
2023/07/18 11:13:32;;;;;;;5.73;3.07;;;;;;;26.75;52.59;96539.66;7398686;19;20375;-92
2023/07/18 11:16:08;;;;;;;3.73;2.90;;;;;;;25.65;51.06;96350.66;7397509;19;20387;-92
2023/07/18 11:18:36;;;;;;;4.37;3.10;;;;;;;26.40;51.32;96498.69;7397557;19;20389;-92
2023/07/18 11:21:05;;;;;;;6.33;4.70;;;;;;;24.67;51.38;96268.59;7397260;19;20395;-92
2023/07/18 11:23:34;;;;;;;3.10;2.90;;;;;;;26.56;51.25;96470.00;7399376;19;20396;-92
2023/07/18 11:26:27;;;;;;;4.23;3.83;;;;;;;26.30;50.88;96534.94;7398320;19;20394;-92
2023/07/18 11:28:57;;;;;;;3.67;3.30;;;;;;;26.33;52.42;96498.09;7396076;19;20412;-92
2023/07/18 11:31:25;;;;;;;4.23;3.33;;;;;;;26.15;50.40;96493.09;7408147;19;20440;-93
2023/07/18 11:33:58;;;;;;;4.17;3.53;;;;;;;25.64;50.57;96381.63;7427993;19;20397;-92
2023/07/18 11:36:32;;;;;;;4.30;3.10;;;;;;;24.90;49.93;96302.88;7416748;19;20728;-92